Time;durP1;ratioP1;P1;durP2;ratioP2;P2;SDS_P1;SDS_P2;PMS_P1;PMS_P2;Temp;Humidity;BMP_temperature;BMP_pressure;BME280_temperature;BME280_humidity;BME280_pressure;Samples;Min_cycle;Max_cycle;Signal;HPM_P1;HPM_P2
2021/12/18 00:02:42;;;;;;;12.35;7.38;;;3.40;99.90;;;;;;5043075;28;20200;-73
2021/12/18 00:05:28;;;;;;;10.77;7.43;;;3.40;99.90;;;;;;5014166;28;20198;-73
2021/12/18 00:08:13;;;;;;;9.90;7.65;;;3.30;99.90;;;;;;5028130;28;20279;-73
2021/12/18 00:11:00;;;;;;;9.23;7.57;;;3.30;99.90;;;;;;5042070;28;20259;-73
2021/12/18 00:13:46;;;;;;;10.63;7.75;;;3.40;99.90;;;;;;5023452;28;20229;-74
2021/12/18 00:16:31;;;;;;;12.75;7.63;;;3.50;99.90;;;;;;5027426;28;20565;-73
2021/12/18 00:19:23;;;;;;;10.07;7.45;;;3.60;99.90;;;;;;5028194;28;20276;-73
2021/12/18 00:22:09;;;;;;;9.20;6.13;;;3.60;99.90;;;;;;5027975;28;20744;-73
2021/12/18 00:24:55;;;;;;;12.27;7.68;;;3.60;99.90;;;;;;5028515;28;20208;-73
2021/12/18 00:27:42;;;;;;;9.82;7.20;;;3.70;99.90;;;;;;5024842;28;20615;-73
2021/12/18 00:30:27;;;;;;;11.80;7.20;;;3.80;99.90;;;;;;5025194;28;20360;-73
2021/12/18 00:33:13;;;;;;;9.80;7.10;;;3.70;99.90;;;;;;5021943;28;20300;-73
2021/12/18 00:35:59;;;;;;;11.38;7.55;;;3.70;99.90;;;;;;5036025;28;20225;-73
2021/12/18 00:38:44;;;;;;;9.75;6.90;;;3.60;99.90;;;;;;5034586;28;20229;-73
2021/12/18 00:41:48;;;;;;;10.10;7.07;;;3.50;99.90;;;;;;5030438;28;20201;-73
2021/12/18 00:44:35;;;;;;;10.40;7.30;;;3.40;99.90;;;;;;5028864;28;20571;-73
2021/12/18 00:47:20;;;;;;;9.30;6.47;;;3.40;99.90;;;;;;5031815;28;20278;-73
2021/12/18 00:50:09;;;;;;;9.80;6.75;;;3.30;99.90;;;;;;5030912;28;20392;-73
2021/12/18 00:52:54;;;;;;;11.20;6.80;;;3.30;99.90;;;;;;5033956;28;20916;-74
2021/12/18 00:55:40;;;;;;;10.50;7.30;;;3.40;99.90;;;;;;5016962;28;20578;-74
2021/12/18 00:58:26;;;;;;;8.27;6.28;;;3.40;99.90;;;;;;5022821;28;20213;-73
2021/12/18 01:01:13;;;;;;;9.95;7.05;;;3.50;99.90;;;;;;5032578;28;20204;-73
2021/12/18 01:03:59;;;;;;;9.90;6.97;;;3.50;99.90;;;;;;5037738;28;20224;-73
2021/12/18 01:06:45;;;;;;;8.52;6.47;;;3.60;99.90;;;;;;5036802;28;20210;-73
2021/12/18 01:09:46;;;;;;;11.13;7.40;;;3.50;99.90;;;;;;5031458;28;20778;-73
2021/12/18 01:12:37;;;;;;;8.82;6.10;;;3.60;99.90;;;;;;5038804;28;20201;-73
2021/12/18 01:15:28;;;;;;;12.25;7.68;;;3.60;99.90;;;;;;5027690;28;20206;-73
2021/12/18 01:24:22;;;;;;;10.00;7.10;;;3.70;99.90;;;;;;5045010;28;20205;-73
2021/12/18 01:27:08;;;;;;;10.90;7.93;;;3.70;99.90;;;;;;5033508;28;20327;-73
2021/12/18 01:29:53;;;;;;;12.98;8.10;;;3.70;99.90;;;;;;5036018;28;20758;-73
2021/12/18 01:32:39;;;;;;;8.80;7.03;;;3.70;99.90;;;;;;5040619;28;20201;-73
2021/12/18 01:35:26;;;;;;;14.13;7.75;;;3.50;99.90;;;;;;5028499;28;20267;-73
2021/12/18 01:38:13;;;;;;;13.85;8.40;;;3.50;99.90;;;;;;5035100;28;20909;-73
2021/12/18 01:41:01;;;;;;;10.05;7.38;;;3.70;99.90;;;;;;5042992;28;20208;-73
2021/12/18 01:47:04;;;;;;;9.55;6.80;;;3.80;99.90;;;;;;5031051;28;20733;-73
2021/12/18 01:52:55;;;;;;;18.33;7.53;;;4.00;99.90;;;;;;5031859;28;20557;-73
2021/12/18 01:55:44;;;;;;;10.75;8.48;;;4.00;99.90;;;;;;5030344;28;20211;-73
2021/12/18 01:58:29;;;;;;;10.60;7.20;;;4.10;99.90;;;;;;5032859;28;20202;-74
2021/12/18 02:01:16;;;;;;;20.05;7.50;;;4.20;99.90;;;;;;5028765;28;20276;-73
2021/12/18 02:04:01;;;;;;;15.40;8.82;;;4.10;99.90;;;;;;5036949;28;20201;-74
2021/12/18 02:06:47;;;;;;;16.63;9.30;;;4.00;99.90;;;;;;5041548;28;20565;-74
2021/12/18 02:09:52;;;;;;;12.80;9.30;;;3.90;99.90;;;;;;5040877;28;20296;-75
2021/12/18 02:12:46;;;;;;;12.20;8.95;;;3.90;99.90;;;;;;5032762;28;20226;-74
2021/12/18 02:21:40;;;;;;;14.63;9.88;;;4.10;99.90;;;;;;5032688;28;20243;-74
2021/12/18 02:24:28;;;;;;;13.07;9.27;;;4.10;99.90;;;;;;5031569;28;20209;-74
2021/12/18 02:27:14;;;;;;;14.05;10.85;;;4.20;99.90;;;;;;5037781;28;20205;-74
2021/12/18 02:30:03;;;;;;;16.00;10.43;;;4.20;99.90;;;;;;5028083;28;20285;-74
2021/12/18 02:32:49;;;;;;;14.70;9.80;;;4.30;99.90;;;;;;5037657;28;20209;-74
2021/12/18 02:35:41;;;;;;;13.30;10.13;;;4.30;99.90;;;;;;5027154;28;20248;-74
2021/12/18 02:38:43;;;;;;;15.60;9.48;;;4.30;99.90;;;;;;5042728;28;20579;-74
2021/12/18 02:41:33;;;;;;;19.75;9.70;;;4.30;99.90;;;;;;5025889;28;20279;-74
2021/12/18 02:44:19;;;;;;;16.73;11.68;;;4.40;99.90;;;;;;5027987;28;20197;-74
2021/12/18 02:47:04;;;;;;;23.25;17.38;;;4.30;99.90;;;;;;5019549;28;20264;-74
2021/12/18 02:49:52;;;;;;;23.90;16.27;;;4.30;99.90;;;;;;5038113;28;20249;-74
2021/12/18 02:52:38;;;;;;;20.02;14.82;;;4.30;99.90;;;;;;5042868;28;20291;-74
2021/12/18 02:55:25;;;;;;;18.73;15.10;;;4.20;99.90;;;;;;5034139;28;20201;-75
2021/12/18 02:58:11;;;;;;;22.90;16.40;;;4.20;99.90;;;;;;5041995;28;20291;-74
2021/12/18 03:00:58;;;;;;;22.30;15.43;;;4.30;99.90;;;;;;5033574;28;20203;-74
2021/12/18 03:03:45;;;;;;;21.73;14.90;;;4.30;99.90;;;;;;5034668;28;20205;-74
2021/12/18 03:06:35;;;;;;;21.95;13.65;;;4.20;99.90;;;;;;5040514;28;20201;-74
2021/12/18 03:22:42;;;;;;;18.10;12.85;;;4.60;99.90;;;;;;4975374;28;20207;-74
2021/12/18 03:25:29;;;;;;;19.25;13.35;;;4.50;99.90;;;;;;4975896;28;20267;-74
2021/12/18 03:28:17;;;;;;;17.45;12.18;;;4.60;99.90;;;;;;5042077;28;20194;-75
2021/12/18 03:31:02;;;;;;;19.05;13.00;;;4.50;99.90;;;;;;5037313;28;20209;-74
2021/12/18 03:33:48;;;;;;;18.50;13.90;;;4.50;99.90;;;;;;5031085;28;20206;-74
2021/12/18 03:36:34;;;;;;;19.05;13.07;;;4.50;99.90;;;;;;5037113;28;20217;-74
2021/12/18 03:39:20;;;;;;;15.40;12.38;;;4.50;99.90;;;;;;5023508;28;20259;-74
2021/12/18 03:42:06;;;;;;;15.90;11.93;;;4.50;99.90;;;;;;5035155;28;20209;-74
2021/12/18 03:44:53;;;;;;;20.35;12.93;;;4.60;99.90;;;;;;5037137;28;20216;-74
2021/12/18 03:47:40;;;;;;;17.00;11.50;;;4.60;99.90;;;;;;5037893;28;20683;-74
2021/12/18 03:50:25;;;;;;;15.20;11.13;;;4.60;99.90;;;;;;5035954;28;20264;-74
2021/12/18 03:53:11;;;;;;;15.05;11.70;;;4.70;99.90;;;;;;5023060;28;20352;-74
2021/12/18 03:55:56;;;;;;;18.73;12.57;;;4.80;99.90;;;;;;5032837;28;20205;-73
2021/12/18 03:58:42;;;;;;;17.73;12.38;;;4.80;99.90;;;;;;5042548;28;20356;-75
2021/12/18 04:01:29;;;;;;;15.93;12.18;;;4.80;99.90;;;;;;5032145;28;20333;-74
2021/12/18 04:04:15;;;;;;;21.48;12.35;;;4.80;99.90;;;;;;5028542;28;20682;-74
2021/12/18 04:07:01;;;;;;;14.50;11.02;;;4.90;99.90;;;;;;5031571;28;20204;-74
2021/12/18 04:09:48;;;;;;;18.98;13.25;;;4.90;99.90;;;;;;5040999;28;20228;-74
2021/12/18 04:12:33;;;;;;;20.80;14.07;;;4.90;99.90;;;;;;5029984;28;20303;-74
2021/12/18 04:15:19;;;;;;;28.00;15.05;;;4.90;99.90;;;;;;5022129;28;20206;-74
2021/12/18 04:18:06;;;;;;;26.05;17.15;;;4.90;99.90;;;;;;5029303;28;20241;-74
2021/12/18 04:20:52;;;;;;;24.88;16.35;;;5.00;99.90;;;;;;5038242;28;20679;-74
2021/12/18 04:23:38;;;;;;;24.00;16.00;;;5.00;99.90;;;;;;5026579;28;20220;-74
2021/12/18 04:26:24;;;;;;;21.05;12.98;;;5.00;99.90;;;;;;5031674;28;20259;-74
2021/12/18 04:29:10;;;;;;;21.02;14.85;;;5.00;99.90;;;;;;5039466;28;20225;-74
2021/12/18 04:31:56;;;;;;;17.45;13.05;;;5.00;99.90;;;;;;5030130;28;20324;-74
2021/12/18 04:34:43;;;;;;;25.90;13.98;;;4.90;99.90;;;;;;5026844;28;20234;-75
2021/12/18 04:37:29;;;;;;;20.38;14.10;;;5.00;99.90;;;;;;5032506;28;20229;-75
2021/12/18 04:40:15;;;;;;;23.02;15.30;;;4.90;99.90;;;;;;5038614;28;20344;-74
2021/12/18 04:43:00;;;;;;;27.73;15.13;;;5.00;99.90;;;;;;5021180;28;20205;-74
2021/12/18 04:45:46;;;;;;;19.98;12.68;;;5.00;99.90;;;;;;5032140;28;20251;-74
2021/12/18 04:48:31;;;;;;;18.85;13.18;;;5.00;99.90;;;;;;5026993;28;20386;-74
2021/12/18 04:51:18;;;;;;;29.33;13.57;;;5.00;99.90;;;;;;5046425;28;20201;-74
2021/12/18 04:54:04;;;;;;;19.92;13.88;;;5.00;99.90;;;;;;5031004;28;20201;-74
2021/12/18 04:56:50;;;;;;;22.17;14.02;;;5.10;99.90;;;;;;5039510;28;20645;-74
2021/12/18 04:59:42;;;;;;;20.83;12.13;;;5.20;99.90;;;;;;5029559;28;20237;-74
2021/12/18 05:02:36;;;;;;;18.13;12.77;;;5.20;99.90;;;;;;5031841;28;20209;-74
2021/12/18 05:05:22;;;;;;;22.05;13.05;;;5.20;99.90;;;;;;5035068;28;20806;-74
2021/12/18 05:08:09;;;;;;;19.63;13.13;;;5.10;99.90;;;;;;5041165;28;20331;-74
2021/12/18 05:10:55;;;;;;;27.27;20.35;;;5.10;99.90;;;;;;5041382;28;20213;-74
2021/12/18 05:13:40;;;;;;;28.63;23.90;;;5.10;99.90;;;;;;5036860;28;20312;-74
2021/12/18 05:16:27;;;;;;;30.27;21.73;;;5.20;99.90;;;;;;5029077;28;20209;-74
2021/12/18 05:19:12;;;;;;;24.83;19.90;;;5.20;99.90;;;;;;5039871;28;20415;-74
2021/12/18 05:21:58;;;;;;;25.95;17.92;;;5.20;99.90;;;;;;5040515;28;20689;-73
2021/12/18 05:24:44;;;;;;;22.60;16.25;;;5.30;99.90;;;;;;5028859;28;20254;-74
2021/12/18 05:27:30;;;;;;;22.50;15.93;;;5.40;99.90;;;;;;5036690;28;20194;-74
2021/12/18 05:30:16;;;;;;;19.83;15.20;;;5.40;99.90;;;;;;5037939;28;20225;-73
2021/12/18 05:33:02;;;;;;;21.63;14.93;;;5.30;99.90;;;;;;5038654;28;20670;-74
2021/12/18 05:35:48;;;;;;;20.85;15.43;;;5.30;99.90;;;;;;5041102;28;20204;-74
2021/12/18 05:38:34;;;;;;;27.35;14.35;;;5.30;99.90;;;;;;5042073;28;20404;-74
2021/12/18 05:41:21;;;;;;;25.65;15.90;;;5.30;99.90;;;;;;5025487;28;20213;-72
2021/12/18 05:44:07;;;;;;;27.75;16.17;;;5.40;99.90;;;;;;5037273;28;20216;-74
2021/12/18 05:46:54;;;;;;;20.88;15.95;;;5.50;99.90;;;;;;5040034;28;20221;-74
2021/12/18 05:49:39;;;;;;;22.45;16.67;;;5.50;99.90;;;;;;5031812;28;20220;-74
2021/12/18 05:52:25;;;;;;;20.25;14.65;;;5.50;99.90;;;;;;5036780;28;20280;-74
2021/12/18 05:55:11;;;;;;;19.98;15.32;;;5.40;99.90;;;;;;5031289;28;20296;-74
2021/12/18 05:57:58;;;;;;;23.35;15.00;;;5.30;99.90;;;;;;5037217;28;20302;-74
2021/12/18 06:00:44;;;;;;;22.38;15.32;;;5.30;99.90;;;;;;5037274;28;20205;-74
2021/12/18 06:03:30;;;;;;;25.92;16.73;;;5.30;99.90;;;;;;5033028;28;20263;-75
2021/12/18 06:06:16;;;;;;;23.23;15.38;;;5.30;99.90;;;;;;5031158;28;20201;-74
2021/12/18 06:09:02;;;;;;;22.98;15.13;;;5.40;99.90;;;;;;5029870;28;20295;-74
2021/12/18 06:11:47;;;;;;;23.75;15.85;;;5.30;99.90;;;;;;5040871;28;20655;-74
2021/12/18 06:14:35;;;;;;;21.00;14.45;;;5.40;99.90;;;;;;5035139;28;20702;-74
2021/12/18 06:17:20;;;;;;;18.77;13.50;;;5.40;99.90;;;;;;5042488;28;20352;-74
2021/12/18 06:20:07;;;;;;;31.20;15.70;;;5.30;99.90;;;;;;5035945;28;20229;-74
2021/12/18 06:22:53;;;;;;;22.35;15.45;;;5.20;99.90;;;;;;5031518;28;20206;-73
2021/12/18 06:25:38;;;;;;;19.77;14.50;;;5.20;99.90;;;;;;5031753;28;20699;-74
2021/12/18 06:28:24;;;;;;;19.80;14.40;;;5.30;99.90;;;;;;5037107;28;20205;-74
2021/12/18 06:31:11;;;;;;;19.48;14.85;;;5.30;99.90;;;;;;5027851;28;20205;-74
2021/12/18 06:33:57;;;;;;;20.27;14.45;;;5.30;99.90;;;;;;5035648;28;20208;-74
2021/12/18 06:36:42;;;;;;;21.02;14.90;;;5.30;99.90;;;;;;5042362;28;20255;-74
2021/12/18 06:39:28;;;;;;;21.23;13.80;;;5.40;99.90;;;;;;5029663;28;20221;-74
2021/12/18 06:42:14;;;;;;;22.35;13.93;;;5.30;99.90;;;;;;5025085;28;20197;-74
2021/12/18 06:44:59;;;;;;;19.77;14.13;;;5.40;99.90;;;;;;5035655;28;20279;-73
2021/12/18 06:47:46;;;;;;;17.05;12.95;;;5.30;99.90;;;;;;5039827;28;20669;-75
2021/12/18 06:50:32;;;;;;;15.85;12.80;;;5.30;99.90;;;;;;5036214;28;20710;-74
2021/12/18 06:53:18;;;;;;;17.02;12.85;;;5.30;99.90;;;;;;5037063;28;20286;-74
2021/12/18 06:56:04;;;;;;;19.85;12.98;;;5.30;99.90;;;;;;5024560;28;20273;-74
2021/12/18 06:58:51;;;;;;;17.15;12.48;;;5.40;99.90;;;;;;5027088;28;20237;-74
2021/12/18 07:01:37;;;;;;;17.58;12.48;;;5.40;99.90;;;;;;5031625;28;20280;-74
2021/12/18 07:04:25;;;;;;;17.25;12.75;;;5.50;99.90;;;;;;5035620;28;20196;-74
2021/12/18 07:07:11;;;;;;;16.27;12.15;;;5.40;99.90;;;;;;5028828;28;20205;-74
2021/12/18 07:09:56;;;;;;;19.92;13.02;;;5.30;99.90;;;;;;5035260;28;20236;-74
2021/12/18 07:12:42;;;;;;;17.00;11.98;;;5.40;99.90;;;;;;5022713;28;20201;-74
2021/12/18 07:15:28;;;;;;;17.42;13.10;;;5.40;99.90;;;;;;5041728;28;20208;-74
2021/12/18 07:18:14;;;;;;;17.25;12.27;;;5.40;99.90;;;;;;5036366;28;20224;-74
2021/12/18 07:21:01;;;;;;;19.02;12.13;;;5.40;99.90;;;;;;5032437;28;20604;-74
2021/12/18 07:23:47;;;;;;;19.67;11.05;;;5.40;99.90;;;;;;5041053;28;20201;-73
2021/12/18 07:26:32;;;;;;;16.25;11.30;;;5.40;99.90;;;;;;5035133;28;20215;-75
2021/12/18 07:29:19;;;;;;;17.45;12.10;;;5.40;99.90;;;;;;5023781;28;20572;-74
2021/12/18 07:32:05;;;;;;;16.58;11.05;;;5.50;99.90;;;;;;5026236;28;20259;-74
2021/12/18 07:34:51;;;;;;;19.25;12.57;;;5.50;99.90;;;;;;5045040;28;20673;-74
2021/12/18 07:37:38;;;;;;;17.15;10.98;;;5.50;99.90;;;;;;5037621;28;20304;-75
2021/12/18 07:40:24;;;;;;;18.55;11.13;;;5.50;99.90;;;;;;5034508;28;20299;-74
2021/12/18 07:43:09;;;;;;;15.60;10.90;;;5.50;99.90;;;;;;5035575;28;20224;-73
2021/12/18 07:45:55;;;;;;;19.63;12.00;;;5.50;99.90;;;;;;5037758;28;20290;-74
2021/12/18 07:48:40;;;;;;;17.13;12.00;;;5.50;99.90;;;;;;5038961;28;20220;-74
2021/12/18 07:51:26;;;;;;;16.25;11.65;;;5.50;99.90;;;;;;5033450;28;20207;-74
2021/12/18 07:54:13;;;;;;;15.40;12.18;;;5.60;99.90;;;;;;5037327;28;20204;-74
2021/12/18 07:56:59;;;;;;;19.90;15.23;;;5.60;99.90;;;;;;5034905;28;20695;-74
2021/12/18 07:59:45;;;;;;;19.55;13.32;;;5.60;99.90;;;;;;5042265;28;20221;-73
2021/12/18 08:02:30;;;;;;;15.85;12.25;;;5.60;99.90;;;;;;5046367;28;20204;-73
2021/12/18 08:05:16;;;;;;;17.77;11.82;;;5.60;99.90;;;;;;5032986;28;20204;-73
2021/12/18 08:08:02;;;;;;;17.90;13.20;;;5.70;99.90;;;;;;5030342;28;20291;-73
2021/12/18 08:10:49;;;;;;;18.40;13.55;;;5.70;99.90;;;;;;5035760;28;20284;-73
2021/12/18 08:13:35;;;;;;;18.90;11.90;;;5.70;99.90;;;;;;5028478;28;20205;-73
2021/12/18 08:16:20;;;;;;;29.58;18.65;;;5.70;99.90;;;;;;5038550;28;20685;-73
2021/12/18 08:19:06;;;;;;;45.90;23.60;;;5.70;99.90;;;;;;5037795;28;20764;-73
2021/12/18 08:21:51;;;;;;;26.40;15.77;;;5.70;99.90;;;;;;5036436;28;20213;-73
2021/12/18 08:24:37;;;;;;;15.48;10.85;;;5.80;99.90;;;;;;5033909;28;20296;-73
2021/12/18 08:27:24;;;;;;;16.15;11.60;;;5.90;99.90;;;;;;5031886;28;20714;-73
2021/12/18 08:30:11;;;;;;;15.02;10.93;;;5.90;99.90;;;;;;5032208;28;20222;-73
2021/12/18 08:32:58;;;;;;;18.38;11.98;;;6.00;99.90;;;;;;5035806;28;20260;-73
2021/12/18 08:35:44;;;;;;;14.75;11.43;;;5.90;99.90;;;;;;5035340;28;20563;-73
2021/12/18 08:38:29;;;;;;;17.63;12.32;;;6.00;99.90;;;;;;5039535;28;20232;-73
2021/12/18 08:41:16;;;;;;;19.88;12.50;;;6.00;99.90;;;;;;5031560;28;20200;-73
2021/12/18 08:44:03;;;;;;;23.05;12.40;;;6.10;99.90;;;;;;5037946;28;20209;-73
2021/12/18 08:46:49;;;;;;;23.30;14.25;;;6.10;99.90;;;;;;5049904;28;20271;-73
2021/12/18 08:49:34;;;;;;;19.77;13.55;;;6.10;99.90;;;;;;5028472;28;20229;-73
2021/12/18 08:52:21;;;;;;;17.77;14.02;;;6.10;99.90;;;;;;5041799;28;20203;-73
2021/12/18 08:55:07;;;;;;;19.00;12.75;;;6.10;99.90;;;;;;5034038;28;20862;-73
2021/12/18 08:57:53;;;;;;;20.42;12.82;;;6.10;99.90;;;;;;5031654;28;20209;-73
2021/12/18 09:00:40;;;;;;;18.90;12.90;;;6.10;99.90;;;;;;5032865;28;20255;-73
2021/12/18 09:03:26;;;;;;;16.30;11.85;;;6.20;99.90;;;;;;5035469;28;20209;-73
2021/12/18 09:06:12;;;;;;;20.55;12.55;;;6.20;99.90;;;;;;5036298;28;20208;-73
2021/12/18 09:08:58;;;;;;;15.68;12.20;;;6.20;99.90;;;;;;5037897;28;20220;-73
2021/12/18 09:11:43;;;;;;;14.15;10.85;;;6.20;99.90;;;;;;5019529;28;20268;-73
2021/12/18 09:14:29;;;;;;;16.13;12.20;;;6.20;99.90;;;;;;5028516;28;20284;-73
2021/12/18 09:17:16;;;;;;;14.13;11.60;;;6.20;99.90;;;;;;5036992;28;20201;-73
2021/12/18 09:20:02;;;;;;;17.90;12.43;;;6.20;99.90;;;;;;5033178;28;20870;-73
2021/12/18 09:22:48;;;;;;;21.50;12.63;;;6.20;99.90;;;;;;5035246;28;20205;-73
2021/12/18 09:25:33;;;;;;;17.73;12.77;;;6.20;99.90;;;;;;5031893;28;20667;-73
2021/12/18 09:28:19;;;;;;;16.27;11.55;;;6.10;99.90;;;;;;5024375;28;20711;-73
2021/12/18 09:31:05;;;;;;;18.83;12.45;;;6.10;99.90;;;;;;5040588;28;20227;-73
2021/12/18 09:33:52;;;;;;;15.43;10.77;;;6.20;99.90;;;;;;5032842;28;20205;-73
2021/12/18 09:36:38;;;;;;;13.20;10.15;;;6.20;99.90;;;;;;5040938;28;20207;-73
2021/12/18 09:39:24;;;;;;;16.40;10.55;;;6.30;99.90;;;;;;5029540;28;20305;-73
2021/12/18 09:42:10;;;;;;;13.75;11.25;;;6.30;99.90;;;;;;5035270;28;20280;-72
2021/12/18 09:44:56;;;;;;;13.70;10.52;;;6.30;99.90;;;;;;5023487;28;20205;-73
2021/12/18 09:47:44;;;;;;;14.73;11.57;;;6.30;99.90;;;;;;5046652;28;20211;-73
2021/12/18 09:50:32;;;;;;;14.77;10.77;;;6.30;99.90;;;;;;5024012;28;20707;-73
2021/12/18 09:53:18;;;;;;;14.55;10.75;;;6.30;99.90;;;;;;5035573;28;20288;-73
2021/12/18 09:56:05;;;;;;;13.35;9.73;;;6.30;99.90;;;;;;5031629;28;20299;-73
2021/12/18 09:58:51;;;;;;;13.82;10.13;;;6.40;99.90;;;;;;5035995;28;20226;-73
2021/12/18 10:01:37;;;;;;;14.77;11.20;;;6.40;99.90;;;;;;5033514;28;20672;-73
2021/12/18 10:04:31;;;;;;;15.40;12.00;;;6.40;99.90;;;;;;5053024;28;20204;-72
2021/12/18 10:07:20;;;;;;;14.20;11.60;;;6.30;99.90;;;;;;5024166;28;20206;-73
2021/12/18 10:10:11;;;;;;;15.73;12.02;;;6.20;99.90;;;;;;5032770;28;20221;-73
2021/12/18 10:13:03;;;;;;;14.65;10.75;;;6.20;99.90;;;;;;5034550;28;20328;-72
2021/12/18 10:16:07;;;;;;;13.93;10.65;;;6.20;99.90;;;;;;5030964;28;20209;-73
2021/12/18 10:18:53;;;;;;;15.07;10.77;;;6.30;99.90;;;;;;5033720;28;20233;-73
2021/12/18 10:21:39;;;;;;;14.05;10.23;;;6.30;99.90;;;;;;5033054;28;20205;-73
2021/12/18 10:24:28;;;;;;;13.80;11.07;;;6.40;99.90;;;;;;5039744;28;20208;-73
2021/12/18 10:27:18;;;;;;;13.55;10.25;;;6.40;99.90;;;;;;5032830;28;20197;-72
2021/12/18 10:30:19;;;;;;;14.23;10.00;;;6.40;99.90;;;;;;5035987;28;20316;-73
2021/12/18 10:33:06;;;;;;;13.70;10.35;;;6.30;99.90;;;;;;5039303;28;20200;-73
2021/12/18 10:35:54;;;;;;;14.13;10.60;;;6.30;99.90;;;;;;5041212;28;20202;-73
2021/12/18 10:38:45;;;;;;;15.85;10.43;;;6.40;99.90;;;;;;5023930;28;20810;-72
2021/12/18 10:41:34;;;;;;;15.35;10.40;;;6.50;99.90;;;;;;5033577;28;20554;-72
2021/12/18 10:44:19;;;;;;;13.55;10.45;;;6.50;99.90;;;;;;5035815;28;20197;-72
2021/12/18 10:47:05;;;;;;;14.63;10.70;;;6.50;99.90;;;;;;5030042;28;20813;-72
2021/12/18 10:49:51;;;;;;;13.32;10.32;;;6.50;99.90;;;;;;5034926;28;20216;-72
2021/12/18 10:52:38;;;;;;;17.50;12.40;;;6.50;99.90;;;;;;5027443;28;20696;-72
2021/12/18 10:55:32;;;;;;;16.25;11.63;;;6.50;99.90;;;;;;5016713;28;20205;-72
2021/12/18 10:58:25;;;;;;;19.45;10.85;;;6.50;99.90;;;;;;5038316;28;20200;-72
2021/12/18 11:01:12;;;;;;;14.30;11.40;;;6.40;99.90;;;;;;5032700;28;20204;-72
2021/12/18 11:03:58;;;;;;;13.95;11.85;;;6.40;99.90;;;;;;5033430;28;20291;-73
2021/12/18 11:06:44;;;;;;;14.57;11.35;;;6.40;99.90;;;;;;5015175;28;20245;-72
2021/12/18 11:09:34;;;;;;;16.20;12.73;;;6.40;99.90;;;;;;5031250;28;20221;-72
2021/12/18 11:15:25;;;;;;;18.50;12.35;;;6.50;99.90;;;;;;5020633;28;20240;-73
2021/12/18 11:18:11;;;;;;;15.50;11.52;;;6.50;99.90;;;;;;5029659;28;20341;-73
2021/12/18 11:20:56;;;;;;;16.75;13.18;;;6.40;99.90;;;;;;5032568;28;20213;-72
2021/12/18 11:23:49;;;;;;;20.13;13.25;;;6.30;99.90;;;;;;5031777;28;20344;-73
2021/12/18 11:26:41;;;;;;;17.95;11.93;;;6.30;99.90;;;;;;5023435;28;20205;-72
2021/12/18 11:29:34;;;;;;;22.48;14.07;;;6.30;99.90;;;;;;5035836;28;20243;-72
2021/12/18 11:32:22;;;;;;;18.55;12.23;;;6.30;99.90;;;;;;5032053;28;20212;-73
2021/12/18 11:35:10;;;;;;;16.08;12.32;;;6.40;99.90;;;;;;5031276;28;20198;-73
2021/12/18 11:38:01;;;;;;;17.90;12.30;;;6.40;99.90;;;;;;5029130;28;20288;-72
2021/12/18 11:40:47;;;;;;;14.90;11.02;;;6.40;99.90;;;;;;5013362;28;20218;-72
2021/12/18 11:43:36;;;;;;;17.95;11.82;;;6.40;99.90;;;;;;5012440;28;20325;-72
2021/12/18 11:46:30;;;;;;;17.85;12.65;;;6.50;99.90;;;;;;5015963;28;20257;-72
2021/12/18 11:49:19;;;;;;;15.93;11.45;;;6.50;99.90;;;;;;5012699;28;20807;-72
2021/12/18 11:52:06;;;;;;;18.17;12.50;;;6.50;99.90;;;;;;5020519;28;20210;-72
2021/12/18 11:54:55;;;;;;;19.08;12.30;;;6.60;99.90;;;;;;5030435;28;20584;-72
2021/12/18 11:57:48;;;;;;;17.85;13.52;;;6.60;99.90;;;;;;5030240;28;20347;-73
2021/12/18 12:00:40;;;;;;;15.88;12.35;;;6.60;99.90;;;;;;5035496;28;20221;-73
2021/12/18 12:03:36;;;;;;;18.70;13.10;;;6.50;99.90;;;;;;5030930;28;20220;-73
2021/12/18 12:06:33;;;;;;;20.27;13.63;;;6.60;99.90;;;;;;5029354;28;20204;-72
2021/12/18 12:09:24;;;;;;;17.73;13.68;;;6.60;99.90;;;;;;5024747;28;20226;-72
2021/12/18 12:12:13;;;;;;;15.52;12.55;;;6.60;99.90;;;;;;5026659;28;20763;-72
2021/12/18 12:15:13;;;;;;;18.65;13.05;;;6.60;99.90;;;;;;5011860;28;20206;-72
2021/12/18 12:18:01;;;;;;;18.65;13.30;;;6.60;99.90;;;;;;5028620;28;20341;-72
2021/12/18 12:20:47;;;;;;;18.60;13.35;;;6.60;99.90;;;;;;5029134;28;20333;-72
2021/12/18 12:24:00;;;;;;;21.25;14.10;;;6.60;99.90;;;;;;5016904;28;20297;-72
2021/12/18 12:26:48;;;;;;;20.98;15.05;;;6.50;99.90;;;;;;5014094;28;20206;-72
2021/12/18 12:29:46;;;;;;;18.73;13.75;;;6.50;99.90;;;;;;5025679;28;20235;-71
2021/12/18 12:32:32;;;;;;;21.90;14.07;;;6.50;99.90;;;;;;5035871;28;20579;-71
2021/12/18 12:35:18;;;;;;;17.83;13.98;;;6.40;99.90;;;;;;5034792;28;20582;-70
2021/12/18 12:38:22;;;;;;;21.83;13.77;;;6.40;99.90;;;;;;5025324;28;20240;-71
2021/12/18 12:41:48;;;;;;;19.80;13.32;;;6.40;99.90;;;;;;5028559;28;20766;-70
2021/12/18 12:44:49;;;;;;;18.55;13.65;;;6.40;99.90;;;;;;5027714;28;20595;-70
2021/12/18 12:47:35;;;;;;;24.13;14.10;;;6.40;99.90;;;;;;5045577;28;20266;-71
2021/12/18 12:50:30;;;;;;;18.50;12.70;;;6.60;99.90;;;;;;5021352;28;20785;-73
2021/12/18 12:53:16;;;;;;;18.40;13.48;;;6.50;99.90;;;;;;5024450;28;20201;-72
2021/12/18 12:56:14;;;;;;;23.20;16.10;;;6.60;99.90;;;;;;5031418;28;20576;-72
2021/12/18 12:59:24;;;;;;;23.23;15.98;;;6.60;99.90;;;;;;5030364;28;20237;-72
2021/12/18 13:02:14;;;;;;;19.15;13.93;;;6.50;99.90;;;;;;5037299;28;20208;-72
2021/12/18 13:05:02;;;;;;;23.05;14.68;;;6.50;99.90;;;;;;5033061;28;20735;-71
2021/12/18 13:07:50;;;;;;;22.13;15.20;;;6.50;99.90;;;;;;5029986;28;20710;-72
2021/12/18 13:10:39;;;;;;;27.33;16.67;;;6.40;99.90;;;;;;5039421;28;20687;-73
2021/12/18 13:13:27;;;;;;;23.00;16.48;;;6.40;99.90;;;;;;5015096;28;20233;-73
2021/12/18 13:16:14;;;;;;;20.27;15.88;;;6.30;99.90;;;;;;5025599;28;20209;-73
2021/12/18 13:19:01;;;;;;;21.13;14.20;;;6.30;99.90;;;;;;5034225;28;20710;-72
2021/12/18 13:21:47;;;;;;;19.77;14.50;;;6.40;99.90;;;;;;5034999;28;20355;-72
2021/12/18 13:24:33;;;;;;;22.50;14.65;;;6.40;99.90;;;;;;5033007;28;20201;-72
2021/12/18 13:27:19;;;;;;;21.98;14.85;;;6.50;99.90;;;;;;5036818;28;20556;-73
2021/12/18 13:30:11;;;;;;;19.75;14.35;;;6.40;99.90;;;;;;5033936;28;20225;-72
2021/12/18 13:32:59;;;;;;;23.13;14.35;;;6.50;99.90;;;;;;5033655;28;20205;-72
2021/12/18 13:35:46;;;;;;;19.65;14.13;;;6.40;99.90;;;;;;5023937;28;20206;-73
2021/12/18 13:38:36;;;;;;;21.75;14.57;;;6.40;99.90;;;;;;5014739;28;20202;-72
2021/12/18 13:41:21;;;;;;;19.60;13.73;;;6.30;99.90;;;;;;5023450;28;20742;-72
2021/12/18 13:44:07;;;;;;;19.83;13.68;;;6.30;99.90;;;;;;5034375;28;20209;-72
2021/12/18 13:46:53;;;;;;;22.50;15.20;;;6.30;99.90;;;;;;5033534;28;20336;-72
2021/12/18 13:49:38;;;;;;;21.88;14.70;;;6.20;99.90;;;;;;5034694;28;20273;-72
2021/12/18 13:52:41;;;;;;;22.88;16.35;;;6.30;99.90;;;;;;5034377;28;20201;-72
2021/12/18 13:55:30;;;;;;;27.30;16.45;;;6.30;99.90;;;;;;5017709;28;20678;-71
2021/12/18 13:58:20;;;;;;;24.05;16.73;;;6.40;99.90;;;;;;5030425;28;20252;-72
2021/12/18 14:01:09;;;;;;;25.75;17.05;;;6.40;99.90;;;;;;5045060;28;20224;-73
2021/12/18 14:03:57;;;;;;;25.33;16.00;;;6.50;99.90;;;;;;5045511;28;20197;-70
2021/12/18 14:06:44;;;;;;;25.75;17.35;;;6.40;99.90;;;;;;5014631;28;20211;-71
2021/12/18 14:09:33;;;;;;;25.98;16.65;;;6.40;99.90;;;;;;5023923;28;20582;-71
2021/12/18 14:12:25;;;;;;;25.98;17.50;;;6.40;99.90;;;;;;5043707;28;20324;-71
2021/12/18 14:15:18;;;;;;;25.67;17.25;;;6.50;99.90;;;;;;5032443;28;20204;-71
2021/12/18 14:18:33;;;;;;;28.70;18.13;;;6.40;99.90;;;;;;5025926;28;20205;-72
2021/12/18 14:21:32;;;;;;;28.40;17.70;;;6.50;99.90;;;;;;5042879;28;20585;-71
2021/12/18 14:24:19;;;;;;;26.77;18.15;;;6.50;99.90;;;;;;5027504;28;20688;-73
2021/12/18 14:27:08;;;;;;;27.33;17.73;;;6.50;99.90;;;;;;5043177;28;20212;-73
2021/12/18 14:29:53;;;;;;;27.65;17.52;;;6.40;99.90;;;;;;5038478;28;20213;-73
2021/12/18 14:32:40;;;;;;;27.13;17.30;;;6.40;99.90;;;;;;5013458;28;20684;-73
2021/12/18 14:35:26;;;;;;;30.08;18.98;;;6.40;99.90;;;;;;5028106;28;20260;-74
2021/12/18 14:38:16;;;;;;;35.53;18.52;;;6.40;99.90;;;;;;5027224;28;20214;-72
2021/12/18 14:41:05;;;;;;;28.98;18.52;;;6.40;99.90;;;;;;5025559;28;20225;-72
2021/12/18 14:44:00;;;;;;;28.05;17.95;;;6.50;99.90;;;;;;5029915;28;20206;-72
2021/12/18 14:46:45;;;;;;;29.75;18.15;;;6.40;99.90;;;;;;5031271;28;20206;-72
2021/12/18 14:49:31;;;;;;;29.92;16.65;;;6.40;99.90;;;;;;5040480;28;20241;-71
2021/12/18 14:52:17;;;;;;;29.77;16.15;;;6.40;99.90;;;;;;5022001;28;20319;-73
2021/12/18 14:55:02;;;;;;;22.73;16.60;;;6.30;99.90;;;;;;5038841;28;20242;-74
2021/12/18 14:57:57;;;;;;;27.90;17.73;;;6.30;99.90;;;;;;5051056;28;20208;-74
2021/12/18 15:00:54;;;;;;;25.20;16.48;;;6.30;99.90;;;;;;5051037;28;20223;-73